createdAt,value
2017-07-21T00:00:57.573Z,23.1
2017-07-21T00:02:05.665Z,23.0
2017-07-21T00:03:13.753Z,23.0
2017-07-21T00:04:21.841Z,23.1
2017-07-21T00:05:29.986Z,23.1
2017-07-21T00:06:38.018Z,23.1
2017-07-21T00:07:46.108Z,23.0
2017-07-21T00:08:54.195Z,23.1
2017-07-21T00:10:02.282Z,23.1
2017-07-21T00:11:10.371Z,23.1
2017-07-21T00:12:18.461Z,23.1
2017-07-21T00:13:26.548Z,23.1
2017-07-21T00:14:34.638Z,23.1
2017-07-21T00:15:42.727Z,23.1
2017-07-21T00:16:50.815Z,23.1
2017-07-21T00:17:58.909Z,23.1
2017-07-21T00:19:06.998Z,23.1
2017-07-21T00:20:15.090Z,23.1
2017-07-21T00:21:23.176Z,23.1
2017-07-21T00:22:31.267Z,23.0
2017-07-21T00:23:39.352Z,23.0
2017-07-21T00:24:47.464Z,23.0
2017-07-21T00:25:55.532Z,23.1
2017-07-21T00:27:03.624Z,23.1
2017-07-21T00:28:11.714Z,23.1
2017-07-21T00:29:19.804Z,23.0
2017-07-21T00:30:27.894Z,22.9
2017-07-21T00:31:35.982Z,23.1
2017-07-21T00:32:44.070Z,22.9
2017-07-21T00:33:52.159Z,22.9
2017-07-21T00:35:00.249Z,23.1
2017-07-21T00:36:08.336Z,23.0
2017-07-21T00:37:16.426Z,23.0
2017-07-21T00:38:24.515Z,23.1
2017-07-21T00:39:32.601Z,23.0
2017-07-21T00:40:40.692Z,22.9
2017-07-21T00:41:48.783Z,23.0
2017-07-21T00:42:56.869Z,22.9
2017-07-21T00:44:04.956Z,22.9
2017-07-21T00:45:13.045Z,23.0
2017-07-21T00:46:21.132Z,23.0
2017-07-21T00:47:29.233Z,23.0
2017-07-21T00:48:37.312Z,22.9
2017-07-21T00:49:45.400Z,23.0
2017-07-21T00:50:53.489Z,22.9
2017-07-21T00:52:01.580Z,23.0
2017-07-21T00:53:09.672Z,23.0
2017-07-21T00:54:17.761Z,23.0
2017-07-21T00:55:25.845Z,22.9
2017-07-21T00:56:33.935Z,23.0
2017-07-21T00:57:42.024Z,23.0
2017-07-21T00:58:50.114Z,22.9
2017-07-21T00:59:58.203Z,23.0
2017-07-21T01:01:06.294Z,23.0
2017-07-21T01:02:14.382Z,23.0
2017-07-21T01:03:22.510Z,23.0
2017-07-21T01:04:30.556Z,23.0
2017-07-21T01:05:38.644Z,22.9
2017-07-21T01:06:46.732Z,22.9
2017-07-21T01:07:54.821Z,23.0
2017-07-21T01:09:02.910Z,22.9
2017-07-21T01:10:11.000Z,23.0
2017-07-21T01:11:19.088Z,22.9
2017-07-21T01:12:27.177Z,22.9
2017-07-21T01:13:35.262Z,22.9
2017-07-21T01:14:43.352Z,22.9
2017-07-21T01:15:51.440Z,22.9
2017-07-21T01:16:59.531Z,23.0
2017-07-21T01:18:07.619Z,22.9
2017-07-21T01:19:15.709Z,22.9
2017-07-21T01:20:23.798Z,22.9
2017-07-21T01:21:31.886Z,22.9
2017-07-21T01:22:39.975Z,22.9
2017-07-21T01:23:48.064Z,23.0
2017-07-21T01:24:56.151Z,22.9
2017-07-21T01:26:04.238Z,22.9
2017-07-21T01:27:12.327Z,23.0
2017-07-21T01:28:20.415Z,22.9
2017-07-21T01:29:28.504Z,22.9
2017-07-21T01:30:36.595Z,22.9
2017-07-21T01:31:44.685Z,22.9
2017-07-21T01:32:52.773Z,22.9
2017-07-21T01:34:00.860Z,22.9
2017-07-21T01:35:08.948Z,22.9
2017-07-21T01:36:17.037Z,23.0
2017-07-21T01:37:25.150Z,22.9
2017-07-21T01:38:33.214Z,22.9
2017-07-21T01:39:41.304Z,22.9
2017-07-21T01:40:49.397Z,22.8
2017-07-21T01:41:57.486Z,22.9
2017-07-21T01:43:05.570Z,22.9
2017-07-21T01:44:13.659Z,22.8
2017-07-21T01:45:21.747Z,22.9
2017-07-21T01:46:29.832Z,22.9
2017-07-21T01:47:37.924Z,22.9
2017-07-21T01:48:46.012Z,22.9
2017-07-21T01:49:54.101Z,22.9
2017-07-21T01:51:02.190Z,22.9
2017-07-21T01:52:10.277Z,22.8
2017-07-21T01:53:18.367Z,22.8
2017-07-21T01:54:26.454Z,22.8
2017-07-21T01:55:34.542Z,22.9
2017-07-21T01:56:42.632Z,22.9
2017-07-21T01:57:50.717Z,22.9
2017-07-21T01:58:58.806Z,22.9
2017-07-21T02:00:06.896Z,22.9
2017-07-21T02:01:14.987Z,22.9
2017-07-21T02:02:23.077Z,22.9
2017-07-21T02:03:31.163Z,22.9
2017-07-21T02:04:39.250Z,22.9
2017-07-21T02:05:47.340Z,22.8
2017-07-21T02:06:55.428Z,22.9
2017-07-21T02:08:03.517Z,22.9
2017-07-21T02:09:11.613Z,22.8
2017-07-21T02:10:19.701Z,22.8
2017-07-21T02:11:27.790Z,22.9
2017-07-21T02:12:35.879Z,22.9
2017-07-21T02:13:43.964Z,22.9
2017-07-21T02:14:52.059Z,22.9
2017-07-21T02:16:00.142Z,22.8
2017-07-21T02:17:08.233Z,22.8
2017-07-21T02:18:16.320Z,22.8
2017-07-21T02:19:24.411Z,22.8
2017-07-21T02:20:32.498Z,22.8
2017-07-21T02:21:40.587Z,22.8
2017-07-21T02:22:48.673Z,22.8
2017-07-21T02:23:56.762Z,22.8
2017-07-21T02:25:04.852Z,22.8
2017-07-21T02:26:12.939Z,22.8
2017-07-21T02:27:21.027Z,22.8
2017-07-21T02:28:29.117Z,22.8
2017-07-21T02:29:37.205Z,22.8
2017-07-21T02:30:45.295Z,22.8
2017-07-21T02:31:53.382Z,22.8
2017-07-21T02:33:01.469Z,22.8
2017-07-21T02:34:09.558Z,22.8
2017-07-21T02:35:17.645Z,22.8
2017-07-21T02:36:25.734Z,22.8
2017-07-21T02:37:33.824Z,22.7
2017-07-21T02:38:41.913Z,22.8
2017-07-21T02:39:50.003Z,22.8
2017-07-21T02:40:58.091Z,22.8
2017-07-21T02:42:06.177Z,22.8
2017-07-21T02:43:14.268Z,22.8
2017-07-21T02:44:22.355Z,22.9
2017-07-21T02:45:30.441Z,22.8
2017-07-21T02:46:38.533Z,22.8
2017-07-21T02:47:46.621Z,22.8
2017-07-21T02:48:54.709Z,22.8
2017-07-21T02:50:02.794Z,22.7
2017-07-21T02:51:10.884Z,22.8
2017-07-21T02:52:18.980Z,22.8
2017-07-21T02:53:27.063Z,22.8
2017-07-21T02:54:35.151Z,22.8
2017-07-21T02:55:43.238Z,22.7
2017-07-21T02:56:51.327Z,22.7
2017-07-21T02:57:59.415Z,22.8
2017-07-21T02:59:07.505Z,22.8
2017-07-21T03:00:15.593Z,22.8
2017-07-21T03:01:23.681Z,22.7
2017-07-21T03:02:31.770Z,22.7
2017-07-21T03:03:39.860Z,22.7
2017-07-21T03:04:47.947Z,22.8
2017-07-21T03:05:56.036Z,22.8
2017-07-21T03:07:04.125Z,22.8
2017-07-21T03:08:12.214Z,22.8
2017-07-21T03:09:20.301Z,22.8
2017-07-21T03:10:28.393Z,22.7
2017-07-21T03:11:36.477Z,22.8
2017-07-21T03:12:44.567Z,22.8
2017-07-21T03:13:52.654Z,22.7
2017-07-21T03:15:00.774Z,22.8
2017-07-21T03:16:08.833Z,22.7
2017-07-21T03:17:16.921Z,22.7
2017-07-21T03:18:25.018Z,22.7
2017-07-21T03:19:33.101Z,22.7
2017-07-21T03:20:41.191Z,22.6
2017-07-21T03:21:49.281Z,22.8
2017-07-21T03:22:57.371Z,22.8
2017-07-21T03:24:05.485Z,22.8
2017-07-21T03:25:13.553Z,22.8
2017-07-21T03:26:21.641Z,22.7
2017-07-21T03:27:29.732Z,22.7
2017-07-21T03:28:37.819Z,22.7
2017-07-21T03:29:45.907Z,22.7
2017-07-21T03:30:53.995Z,22.7
2017-07-21T03:32:02.083Z,22.6
2017-07-21T03:33:10.171Z,22.7
2017-07-21T03:34:18.259Z,22.7
2017-07-21T03:35:26.346Z,22.8
2017-07-21T03:36:34.434Z,22.6
2017-07-21T03:37:42.527Z,22.6
2017-07-21T03:38:50.612Z,22.7
2017-07-21T03:39:58.698Z,22.6
2017-07-21T03:41:06.789Z,22.6
2017-07-21T03:42:14.883Z,22.7
2017-07-21T03:43:22.970Z,22.6
2017-07-21T03:44:31.073Z,22.6
2017-07-21T03:45:39.158Z,22.7
2017-07-21T03:46:47.243Z,22.6
2017-07-21T03:47:55.329Z,22.6
2017-07-21T03:49:03.422Z,22.6
2017-07-21T03:50:11.510Z,22.6
2017-07-21T03:51:19.599Z,22.7
2017-07-21T03:52:27.685Z,22.6
2017-07-21T03:53:35.988Z,22.6
2017-07-21T03:54:44.101Z,22.6
2017-07-21T03:55:52.202Z,22.7
2017-07-21T03:57:00.288Z,22.6
2017-07-21T03:58:08.357Z,22.6
2017-07-21T03:59:16.480Z,22.6
2017-07-21T04:00:24.524Z,22.6
2017-07-21T04:01:32.676Z,22.6
2017-07-21T04:02:40.899Z,22.6
2017-07-21T04:03:48.914Z,22.7
2017-07-21T04:04:57.012Z,22.6
2017-07-21T04:06:05.080Z,22.6
2017-07-21T04:07:13.212Z,22.6
2017-07-21T04:08:21.254Z,22.6
2017-07-21T04:09:29.424Z,22.6
2017-07-21T04:10:37.623Z,22.6
2017-07-21T04:11:45.532Z,22.6
2017-07-21T04:12:53.274Z,22.6
2017-07-21T04:14:01.361Z,22.6
2017-07-21T04:15:09.449Z,22.7
2017-07-21T04:16:17.537Z,22.6
2017-07-21T04:17:25.625Z,22.6
2017-07-21T04:18:33.712Z,22.6
2017-07-21T04:19:41.802Z,22.6
2017-07-21T04:20:49.893Z,22.7
2017-07-21T04:21:57.978Z,22.6
2017-07-21T04:23:06.067Z,22.6
2017-07-21T04:24:14.156Z,22.6
2017-07-21T04:25:22.253Z,22.6
2017-07-21T04:26:30.332Z,22.6
2017-07-21T04:27:38.421Z,22.6
2017-07-21T04:28:46.581Z,22.6
2017-07-21T04:29:55.258Z,22.6
2017-07-21T04:31:02.685Z,22.7
2017-07-21T04:32:10.774Z,22.6
2017-07-21T04:33:18.865Z,22.6
2017-07-21T04:34:26.952Z,22.6
2017-07-21T04:35:35.041Z,22.6
2017-07-21T04:36:43.225Z,22.6
2017-07-21T04:37:51.306Z,22.6
2017-07-21T04:38:59.297Z,22.6
2017-07-21T04:40:07.386Z,22.6
2017-07-21T04:41:15.581Z,22.6
2017-07-21T04:42:23.591Z,22.6
2017-07-21T04:43:31.665Z,22.6
2017-07-21T04:44:39.751Z,22.6
2017-07-21T04:45:47.838Z,22.6
2017-07-21T04:46:55.924Z,22.6
2017-07-21T04:48:04.013Z,22.6
2017-07-21T04:49:12.098Z,22.6
2017-07-21T04:50:20.212Z,22.6
2017-07-21T04:51:28.280Z,22.6
2017-07-21T04:52:36.373Z,22.6
2017-07-21T04:53:44.461Z,22.6
2017-07-21T04:54:52.548Z,22.6
2017-07-21T04:56:00.743Z,22.6
2017-07-21T04:57:09.210Z,22.6
2017-07-21T04:58:17.003Z,22.6
2017-07-21T04:59:24.907Z,22.6
2017-07-21T05:00:32.993Z,22.5
2017-07-21T05:01:41.301Z,22.5
2017-07-21T05:02:49.246Z,22.6
2017-07-21T05:03:57.258Z,22.6
2017-07-21T05:05:05.948Z,22.6
2017-07-21T05:06:14.627Z,22.6
2017-07-21T05:07:21.523Z,22.5
2017-07-21T05:08:29.885Z,22.5
2017-07-21T05:09:37.702Z,22.6
2017-07-21T05:10:45.788Z,22.5
2017-07-21T05:11:53.879Z,22.6
2017-07-21T05:13:01.966Z,22.5
2017-07-21T05:14:10.053Z,22.6
2017-07-21T05:15:18.142Z,22.6
2017-07-21T05:16:26.229Z,22.5
2017-07-21T05:17:34.318Z,22.5
2017-07-21T05:18:42.408Z,22.5
2017-07-21T05:19:50.500Z,22.5
2017-07-21T05:20:58.583Z,22.6
2017-07-21T05:22:06.671Z,22.6
2017-07-21T05:23:14.757Z,22.6
2017-07-21T05:24:22.846Z,22.6
2017-07-21T05:25:30.934Z,22.6
2017-07-21T05:26:39.022Z,22.6
2017-07-21T05:27:47.111Z,22.6
2017-07-21T05:28:55.200Z,22.5
2017-07-21T05:30:03.288Z,22.5
2017-07-21T05:31:11.378Z,22.6
2017-07-21T05:32:19.468Z,22.6
2017-07-21T05:33:27.551Z,22.6
2017-07-21T05:34:35.639Z,22.6
2017-07-21T05:35:43.729Z,22.6
2017-07-21T05:36:51.818Z,22.6
2017-07-21T05:37:59.902Z,22.6
2017-07-21T05:39:07.992Z,22.6
2017-07-21T05:40:16.088Z,22.5
2017-07-21T05:41:24.170Z,22.6
2017-07-21T05:42:32.258Z,22.6
2017-07-21T05:43:40.344Z,22.6
2017-07-21T05:44:48.433Z,22.5
2017-07-21T05:45:56.522Z,22.6
2017-07-21T05:47:04.612Z,22.5
2017-07-21T05:48:12.700Z,22.5
2017-07-21T05:49:20.789Z,22.6
2017-07-21T05:50:28.884Z,22.5
2017-07-21T05:51:36.968Z,22.6
2017-07-21T05:52:45.055Z,22.5
2017-07-21T05:53:53.140Z,22.6
2017-07-21T05:55:01.227Z,22.5
2017-07-21T05:56:09.318Z,22.6
2017-07-21T05:57:17.408Z,22.5
2017-07-21T05:58:25.493Z,22.6
2017-07-21T05:59:33.584Z,22.5
2017-07-21T06:00:41.673Z,22.5
2017-07-21T06:01:49.761Z,22.5
2017-07-21T06:02:57.847Z,22.5
2017-07-21T06:04:05.960Z,22.5
2017-07-21T06:05:14.023Z,22.6
2017-07-21T06:06:22.112Z,22.6
2017-07-21T06:07:30.200Z,22.6
2017-07-21T06:08:38.289Z,22.5
2017-07-21T06:09:46.377Z,22.6
2017-07-21T06:10:54.466Z,22.6
2017-07-21T06:12:02.554Z,22.6
2017-07-21T06:13:10.643Z,22.5
2017-07-21T06:14:18.733Z,22.5
2017-07-21T06:15:26.820Z,22.6
2017-07-21T06:16:34.908Z,22.5
2017-07-21T06:17:43.005Z,22.5
2017-07-21T06:18:51.095Z,22.5
2017-07-21T06:19:59.183Z,22.6
2017-07-21T06:21:07.270Z,22.6
2017-07-21T06:22:15.359Z,22.5
2017-07-21T06:23:23.446Z,22.5
2017-07-21T06:24:31.535Z,22.6
2017-07-21T06:25:39.624Z,22.5
2017-07-21T06:26:47.712Z,22.6
2017-07-21T06:27:55.802Z,22.5
2017-07-21T06:29:03.891Z,22.5
2017-07-21T06:30:11.977Z,22.6
2017-07-21T06:31:20.066Z,22.5
2017-07-21T06:32:28.159Z,22.6
2017-07-21T06:33:36.248Z,22.6
2017-07-21T06:34:44.336Z,22.5
2017-07-21T06:35:52.427Z,22.5
2017-07-21T06:37:00.516Z,22.5
2017-07-21T06:38:08.603Z,22.5
2017-07-21T06:39:16.692Z,22.5
2017-07-21T06:40:24.780Z,22.5
2017-07-21T06:41:32.868Z,22.5
2017-07-21T06:42:40.956Z,22.6
2017-07-21T06:43:49.047Z,22.5
2017-07-21T06:44:57.135Z,22.5
2017-07-21T06:46:05.222Z,22.5
2017-07-21T06:47:13.310Z,22.5
2017-07-21T06:48:21.398Z,22.5
2017-07-21T06:49:29.484Z,22.6
2017-07-21T06:50:37.574Z,22.5
2017-07-21T06:51:45.671Z,22.5
2017-07-21T06:52:53.751Z,22.5
2017-07-21T06:54:01.840Z,22.6
2017-07-21T06:55:09.927Z,22.6
2017-07-21T06:56:18.018Z,22.6
2017-07-21T06:57:26.104Z,22.6
2017-07-21T06:58:34.200Z,22.6
2017-07-21T06:59:42.285Z,22.6
2017-07-21T07:00:50.373Z,22.6
2017-07-21T07:01:58.463Z,22.6
2017-07-21T07:03:06.552Z,22.6
2017-07-21T07:04:14.642Z,22.6
2017-07-21T07:05:22.728Z,22.6
2017-07-21T07:06:30.842Z,22.6
2017-07-21T07:07:38.906Z,22.6
2017-07-21T07:08:46.994Z,22.6
2017-07-21T07:09:55.082Z,22.6
2017-07-21T07:11:03.171Z,22.6
2017-07-21T07:12:11.260Z,22.6
2017-07-21T07:13:19.347Z,22.6
2017-07-21T07:14:27.435Z,22.5
2017-07-21T07:15:35.525Z,22.5
2017-07-21T07:16:43.612Z,22.6
2017-07-21T07:17:51.700Z,22.6
2017-07-21T07:18:59.789Z,22.6
2017-07-21T07:20:07.878Z,22.6
2017-07-21T07:21:15.967Z,22.6
2017-07-21T07:22:24.056Z,22.6
2017-07-21T07:23:32.168Z,22.6
2017-07-21T07:24:40.233Z,22.6
2017-07-21T07:25:48.320Z,22.6
2017-07-21T07:26:56.406Z,22.6
2017-07-21T07:28:04.495Z,22.5
2017-07-21T07:29:12.584Z,22.6
2017-07-21T07:30:20.672Z,22.6
2017-07-21T07:31:28.760Z,22.6
2017-07-21T07:32:36.851Z,22.6
2017-07-21T07:33:44.937Z,22.7
2017-07-21T07:34:53.025Z,22.6
2017-07-21T07:36:01.116Z,22.6
2017-07-21T07:37:09.210Z,22.6
2017-07-21T07:38:17.295Z,22.6
2017-07-21T07:39:25.385Z,22.6
2017-07-21T07:40:33.474Z,22.7
2017-07-21T07:41:41.563Z,22.6
2017-07-21T07:42:49.652Z,22.7
2017-07-21T07:43:57.740Z,22.6
2017-07-21T07:45:05.832Z,22.6
2017-07-21T07:46:13.915Z,22.7
2017-07-21T07:47:22.004Z,22.6
2017-07-21T07:48:30.092Z,22.7
2017-07-21T07:49:38.179Z,22.6
2017-07-21T07:50:46.278Z,22.7
2017-07-21T07:51:54.356Z,22.6
2017-07-21T07:53:02.444Z,22.8
2017-07-21T07:54:10.532Z,22.7
2017-07-21T07:55:18.620Z,22.8
2017-07-21T07:56:26.708Z,22.7
2017-07-21T07:57:34.807Z,22.7
2017-07-21T07:58:42.885Z,22.7
2017-07-21T07:59:50.974Z,22.8
2017-07-21T08:00:59.063Z,22.7
2017-07-21T08:02:07.153Z,22.7
2017-07-21T08:03:15.240Z,22.8
2017-07-21T08:04:23.328Z,22.8
2017-07-21T08:05:31.418Z,22.8
2017-07-21T08:06:39.504Z,22.8
2017-07-21T08:07:47.592Z,22.8
2017-07-21T08:08:55.681Z,22.7
2017-07-21T08:10:03.770Z,22.8
2017-07-21T08:11:11.859Z,22.8
2017-07-21T08:12:19.948Z,22.9
2017-07-21T08:13:28.036Z,22.8
2017-07-21T08:14:36.149Z,22.8
2017-07-21T08:15:44.213Z,22.9
2017-07-21T08:16:52.302Z,22.8
2017-07-21T08:18:00.392Z,22.8
2017-07-21T08:19:08.481Z,22.8
2017-07-21T08:20:16.568Z,22.8
2017-07-21T08:21:24.657Z,22.7
2017-07-21T08:22:32.743Z,22.9
2017-07-21T08:23:40.835Z,22.8
2017-07-21T08:24:48.930Z,22.8
2017-07-21T08:25:57.019Z,22.9
2017-07-21T08:27:05.107Z,22.9
2017-07-21T08:28:13.197Z,22.9
2017-07-21T08:29:21.286Z,22.9
2017-07-21T08:30:29.374Z,22.9
2017-07-21T08:31:37.493Z,22.9
2017-07-21T08:32:45.551Z,22.8
2017-07-21T08:33:53.638Z,23.0
2017-07-21T08:35:01.729Z,23.0
2017-07-21T08:36:09.820Z,23.0
2017-07-21T08:37:17.906Z,22.9
2017-07-21T08:38:25.997Z,23.0
2017-07-21T08:39:34.084Z,22.9
2017-07-21T08:40:42.172Z,22.9
2017-07-21T08:41:50.265Z,23.0
2017-07-21T08:42:58.350Z,23.0
2017-07-21T08:44:06.437Z,22.9
2017-07-21T08:45:14.527Z,22.9
2017-07-21T08:46:22.617Z,23.0
2017-07-21T08:47:30.705Z,23.0
2017-07-21T08:48:38.796Z,23.0
2017-07-21T08:49:46.883Z,23.0
2017-07-21T08:50:54.973Z,23.0
2017-07-21T08:52:03.062Z,23.0
2017-07-21T08:53:11.149Z,23.0
2017-07-21T08:54:19.237Z,23.1
2017-07-21T08:55:27.327Z,22.9
2017-07-21T08:56:35.416Z,23.0
2017-07-21T08:57:43.504Z,23.0
2017-07-21T08:58:51.594Z,23.0
2017-07-21T08:59:59.684Z,23.1
2017-07-21T09:01:07.774Z,23.1
2017-07-21T09:02:15.861Z,23.1
2017-07-21T09:03:23.950Z,23.1
2017-07-21T09:04:32.038Z,23.0
2017-07-21T09:05:40.126Z,23.1
2017-07-21T09:06:48.217Z,23.1
2017-07-21T09:07:56.304Z,23.0
2017-07-21T09:09:04.394Z,23.1
2017-07-21T09:10:12.483Z,23.1
2017-07-21T09:11:20.575Z,23.1
2017-07-21T09:12:28.662Z,23.1
2017-07-21T09:13:36.812Z,23.1
2017-07-21T09:14:44.841Z,23.1
2017-07-21T09:15:52.929Z,23.2
2017-07-21T09:17:01.017Z,23.1
2017-07-21T09:18:09.106Z,23.2
2017-07-21T09:19:17.195Z,23.2
2017-07-21T09:20:25.296Z,23.2
2017-07-21T09:21:33.375Z,23.1
2017-07-21T09:22:41.486Z,23.1
2017-07-21T09:23:49.552Z,23.1
2017-07-21T09:24:57.640Z,23.1
2017-07-21T09:26:05.746Z,23.2
2017-07-21T09:27:13.834Z,23.2
2017-07-21T09:28:21.922Z,23.2
2017-07-21T09:29:30.011Z,23.1
2017-07-21T09:30:38.103Z,23.2
2017-07-21T09:31:46.186Z,23.3
2017-07-21T09:32:54.277Z,23.2
2017-07-21T09:34:02.367Z,23.2
2017-07-21T09:35:10.457Z,23.2
2017-07-21T09:36:18.547Z,23.2
2017-07-21T09:37:26.636Z,23.2
2017-07-21T09:38:34.723Z,23.2
2017-07-21T09:39:42.812Z,23.3
2017-07-21T09:40:50.900Z,23.3
2017-07-21T09:41:58.990Z,23.3
2017-07-21T09:43:07.080Z,23.3
2017-07-21T09:44:15.169Z,23.3
2017-07-21T09:45:23.260Z,23.3
2017-07-21T09:46:31.349Z,23.3
2017-07-21T09:47:39.436Z,23.3
2017-07-21T09:48:47.527Z,23.3
2017-07-21T09:49:55.613Z,23.3
2017-07-21T09:51:03.702Z,23.3
2017-07-21T09:52:11.794Z,23.3
2017-07-21T09:53:19.906Z,23.4
2017-07-21T09:54:27.971Z,23.3
2017-07-21T09:55:36.064Z,23.3
2017-07-21T09:56:44.151Z,23.4
2017-07-21T09:57:52.239Z,23.3
2017-07-21T09:59:00.329Z,23.3
2017-07-21T10:00:08.413Z,23.4
2017-07-21T10:01:16.506Z,23.3
2017-07-21T10:02:24.594Z,23.4
2017-07-21T10:03:32.692Z,23.4
2017-07-21T10:04:40.778Z,23.4
2017-07-21T10:05:48.868Z,23.3
2017-07-21T10:06:56.956Z,23.4
2017-07-21T10:08:05.046Z,23.5
2017-07-21T10:09:13.137Z,23.2
2017-07-21T10:10:21.225Z,23.4
2017-07-21T10:11:29.313Z,23.5
2017-07-21T10:12:37.401Z,23.5
2017-07-21T10:13:45.492Z,23.4
2017-07-21T10:14:53.581Z,23.4
2017-07-21T10:16:01.671Z,23.4
2017-07-21T10:17:09.762Z,23.5
2017-07-21T10:18:17.850Z,23.4
2017-07-21T10:19:25.940Z,23.5
2017-07-21T10:20:34.028Z,23.4
2017-07-21T10:21:42.119Z,23.4
2017-07-21T10:22:50.207Z,23.5
2017-07-21T10:23:58.297Z,23.4
2017-07-21T10:25:06.387Z,23.5
2017-07-21T10:26:14.475Z,23.5
2017-07-21T10:27:22.563Z,23.5
2017-07-21T10:28:30.650Z,23.5
2017-07-21T10:29:38.745Z,23.4
2017-07-21T10:30:46.836Z,23.6
2017-07-21T10:31:54.921Z,23.6
2017-07-21T10:33:03.009Z,23.6
2017-07-21T10:34:11.099Z,23.6
2017-07-21T10:35:19.191Z,23.5
2017-07-21T10:36:27.280Z,23.6
2017-07-21T10:37:35.369Z,23.5
2017-07-21T10:38:43.457Z,23.5
2017-07-21T10:39:51.546Z,23.6
2017-07-21T10:40:59.636Z,23.5
2017-07-21T10:42:07.724Z,23.6
2017-07-21T10:43:15.815Z,23.6
2017-07-21T10:44:23.904Z,23.6
2017-07-21T10:45:31.995Z,23.5
2017-07-21T10:46:40.084Z,23.6
2017-07-21T10:47:48.170Z,23.6
2017-07-21T10:48:56.261Z,23.6
2017-07-21T10:50:04.350Z,23.6
2017-07-21T10:51:12.438Z,23.6
2017-07-21T10:52:20.529Z,23.6
2017-07-21T10:53:28.617Z,23.6
2017-07-21T10:54:36.708Z,23.6
2017-07-21T10:55:44.797Z,23.6
2017-07-21T10:56:52.885Z,23.6
2017-07-21T10:58:00.974Z,23.7
2017-07-21T10:59:09.062Z,23.7
2017-07-21T11:00:17.153Z,23.6
2017-07-21T11:01:25.244Z,23.7
2017-07-21T11:02:33.339Z,23.7
2017-07-21T11:03:41.425Z,23.7
2017-07-21T11:04:49.542Z,23.7
2017-07-21T11:05:57.604Z,23.7
2017-07-21T11:07:05.713Z,23.7
2017-07-21T11:08:13.877Z,23.8
2017-07-21T11:09:21.875Z,23.8
2017-07-21T11:10:29.966Z,23.7
2017-07-21T11:11:38.052Z,23.7
2017-07-21T11:12:46.143Z,23.7
2017-07-21T11:13:54.231Z,23.8
2017-07-21T11:15:02.329Z,23.7
2017-07-21T11:16:10.418Z,23.8
2017-07-21T11:17:18.507Z,23.8
2017-07-21T11:18:26.611Z,23.8
2017-07-21T11:19:34.685Z,23.8
2017-07-21T11:20:42.777Z,23.8
2017-07-21T11:21:50.866Z,23.7
2017-07-21T11:22:58.974Z,23.8
2017-07-21T11:24:07.051Z,23.8
2017-07-21T11:25:15.217Z,23.8
2017-07-21T11:26:23.222Z,23.8
2017-07-21T11:27:31.311Z,23.8
2017-07-21T11:28:39.400Z,23.8
2017-07-21T11:29:47.490Z,23.7
2017-07-21T11:30:55.581Z,23.8
2017-07-21T11:32:03.672Z,23.8
2017-07-21T11:33:11.759Z,23.8
2017-07-21T11:34:19.847Z,23.8
2017-07-21T11:35:27.937Z,23.8
2017-07-21T11:36:36.026Z,23.8
2017-07-21T11:37:44.118Z,23.8
2017-07-21T11:38:52.207Z,23.8
2017-07-21T11:40:00.301Z,23.8
2017-07-21T11:41:08.386Z,23.8
2017-07-21T11:42:16.574Z,23.9
2017-07-21T11:43:24.566Z,23.9
2017-07-21T11:44:32.654Z,23.9
2017-07-21T11:45:40.742Z,23.9
2017-07-21T11:46:48.833Z,23.9
2017-07-21T11:47:56.923Z,23.9
2017-07-21T11:49:05.013Z,23.9
2017-07-21T11:50:13.100Z,23.9
2017-07-21T11:51:21.192Z,23.9
2017-07-21T11:52:29.279Z,23.9
2017-07-21T11:53:37.368Z,23.9
2017-07-21T11:54:45.459Z,23.9
2017-07-21T11:55:53.548Z,23.9
2017-07-21T11:57:01.636Z,23.9
2017-07-21T11:58:09.727Z,23.9
2017-07-21T11:59:17.865Z,23.9
2017-07-21T12:00:25.911Z,23.9
2017-07-21T12:01:34.003Z,23.9
2017-07-21T12:02:42.092Z,23.9
2017-07-21T12:03:50.181Z,23.9
2017-07-21T12:04:58.271Z,23.9
2017-07-21T12:06:06.362Z,24.0
2017-07-21T12:07:14.450Z,23.9
2017-07-21T12:08:22.541Z,23.9
2017-07-21T12:09:30.638Z,23.9
2017-07-21T12:10:38.717Z,24.0
2017-07-21T12:11:46.808Z,24.0
2017-07-21T12:12:54.897Z,24.0
2017-07-21T12:14:02.986Z,24.0
2017-07-21T12:15:11.078Z,24.0
2017-07-21T12:16:19.212Z,24.0
2017-07-21T12:17:27.257Z,24.0
2017-07-21T12:18:35.344Z,24.0
2017-07-21T12:19:43.436Z,24.0
2017-07-21T12:20:51.525Z,24.1
2017-07-21T12:21:59.625Z,24.0
2017-07-21T12:23:07.713Z,24.0
2017-07-21T12:24:15.802Z,24.0
2017-07-21T12:25:23.893Z,23.9
2017-07-21T12:26:31.981Z,23.9
2017-07-21T12:27:40.073Z,24.1
2017-07-21T12:28:48.160Z,24.0
2017-07-21T12:29:56.249Z,24.1
2017-07-21T12:31:04.338Z,24.1
2017-07-21T12:32:12.427Z,24.0
2017-07-21T12:33:20.517Z,24.0
2017-07-21T12:34:28.607Z,24.0
2017-07-21T12:35:36.698Z,24.0
2017-07-21T12:36:44.786Z,24.1
2017-07-21T12:37:52.875Z,24.0
2017-07-21T12:39:00.965Z,24.1
2017-07-21T12:40:09.054Z,24.1
2017-07-21T12:41:17.144Z,24.0
2017-07-21T12:42:25.232Z,24.0
2017-07-21T12:43:33.323Z,24.0
2017-07-21T12:44:41.418Z,24.0
2017-07-21T12:45:49.509Z,24.1
2017-07-21T12:46:57.598Z,24.1
2017-07-21T12:48:05.694Z,24.1
2017-07-21T12:49:13.774Z,24.1
2017-07-21T12:50:21.865Z,24.0
2017-07-21T12:51:29.956Z,24.1
2017-07-21T12:52:38.047Z,24.0
2017-07-21T12:53:46.138Z,24.1
2017-07-21T12:54:54.230Z,24.0
2017-07-21T12:56:02.317Z,24.0
2017-07-21T12:57:10.412Z,24.1
2017-07-21T12:58:18.503Z,24.1
2017-07-21T12:59:26.593Z,24.1
2017-07-21T13:00:34.680Z,24.1
2017-07-21T13:01:42.773Z,24.1
2017-07-21T13:02:50.862Z,24.1
2017-07-21T13:03:58.950Z,24.1
2017-07-21T13:05:07.041Z,24.1
2017-07-21T13:06:15.130Z,24.2
2017-07-21T13:07:23.219Z,24.1
2017-07-21T13:08:31.309Z,24.1
2017-07-21T13:09:39.422Z,24.2
2017-07-21T13:10:47.490Z,24.1
2017-07-21T13:11:55.579Z,24.1
2017-07-21T13:13:03.669Z,24.1
2017-07-21T13:14:11.759Z,24.1
2017-07-21T13:15:19.849Z,24.1
2017-07-21T13:16:27.936Z,24.2
2017-07-21T13:17:36.028Z,24.2
2017-07-21T13:18:44.116Z,24.1
2017-07-21T13:19:52.206Z,24.1
2017-07-21T13:21:00.298Z,24.2
2017-07-21T13:22:08.384Z,24.1
2017-07-21T13:23:16.475Z,24.1
2017-07-21T13:24:24.570Z,24.1
2017-07-21T13:25:32.654Z,24.2
2017-07-21T13:26:40.749Z,24.2
2017-07-21T13:27:48.836Z,24.3
2017-07-21T13:28:56.926Z,24.2
2017-07-21T13:30:05.017Z,24.2
2017-07-21T13:31:13.105Z,24.2
2017-07-21T13:32:21.195Z,24.2
2017-07-21T13:33:29.284Z,24.2
2017-07-21T13:34:37.371Z,24.2
2017-07-21T13:35:45.465Z,24.2
2017-07-21T13:36:53.558Z,24.2
2017-07-21T13:38:01.648Z,24.2
2017-07-21T13:39:09.736Z,24.2
2017-07-21T13:40:17.833Z,24.2
2017-07-21T13:41:25.923Z,24.2
2017-07-21T13:42:34.014Z,24.2
2017-07-21T13:43:42.102Z,24.2
2017-07-21T13:44:50.192Z,24.2
2017-07-21T13:45:58.283Z,24.2
2017-07-21T13:47:06.372Z,24.3
2017-07-21T13:48:14.482Z,24.2
2017-07-21T13:49:22.573Z,24.3
2017-07-21T13:50:30.661Z,24.2
2017-07-21T13:51:38.753Z,24.3
2017-07-21T13:52:46.842Z,24.3
2017-07-21T13:53:54.933Z,24.2
2017-07-21T13:55:03.024Z,24.3
2017-07-21T13:56:11.112Z,24.2
2017-07-21T13:57:19.201Z,24.3
2017-07-21T13:58:27.290Z,24.2
2017-07-21T13:59:35.381Z,24.2
2017-07-21T14:00:43.493Z,24.3
2017-07-21T14:01:51.559Z,24.3
2017-07-21T14:02:59.652Z,24.3
2017-07-21T14:04:07.738Z,24.3
2017-07-21T14:05:15.832Z,24.2
2017-07-21T14:06:23.918Z,24.3
2017-07-21T14:07:32.007Z,24.3
2017-07-21T14:08:40.095Z,24.3
2017-07-21T14:09:48.187Z,24.3
2017-07-21T14:10:56.276Z,24.3
2017-07-21T14:12:04.372Z,24.4
2017-07-21T14:13:12.762Z,24.3
2017-07-21T14:14:20.793Z,24.3
2017-07-21T14:15:28.859Z,24.3
2017-07-21T14:16:36.977Z,24.4
2017-07-21T14:17:45.024Z,24.4
2017-07-21T14:18:53.141Z,24.3
2017-07-21T14:20:01.256Z,24.3
2017-07-21T14:21:09.308Z,24.3
2017-07-21T14:22:17.402Z,24.3
2017-07-21T14:23:25.525Z,24.3
2017-07-21T14:24:33.735Z,24.4
2017-07-21T14:25:41.793Z,24.4
2017-07-21T14:26:49.878Z,24.4
2017-07-21T14:27:58.012Z,24.4
2017-07-21T14:29:06.064Z,24.4
2017-07-21T14:30:14.128Z,24.4
2017-07-21T14:31:22.331Z,24.4
2017-07-21T14:32:30.394Z,24.4
2017-07-21T14:33:38.514Z,24.4
2017-07-21T14:34:46.508Z,24.4
2017-07-21T14:35:54.624Z,24.5
2017-07-21T14:37:02.812Z,24.3
2017-07-21T14:38:10.852Z,24.5
2017-07-21T14:39:18.909Z,24.5
2017-07-21T14:40:26.958Z,24.3
2017-07-21T14:41:34.954Z,24.4
2017-07-21T14:42:42.990Z,24.5
2017-07-21T14:43:51.048Z,24.5
2017-07-21T14:44:59.392Z,24.5
2017-07-21T14:46:07.318Z,24.5
2017-07-21T14:47:15.415Z,24.5
2017-07-21T14:48:23.574Z,24.5
2017-07-21T14:49:31.812Z,24.6
2017-07-21T14:50:39.782Z,24.6
2017-07-21T14:51:47.841Z,24.6
2017-07-21T14:52:55.962Z,24.6
2017-07-21T14:54:04.257Z,24.6
2017-07-21T14:55:12.366Z,24.6
2017-07-21T14:56:20.326Z,24.6
2017-07-21T14:57:28.424Z,24.5
2017-07-21T14:58:36.503Z,24.6
2017-07-21T14:59:44.586Z,24.6
2017-07-21T15:00:52.616Z,24.5
2017-07-21T15:02:00.729Z,24.6
2017-07-21T15:03:08.712Z,24.6
2017-07-21T15:04:16.911Z,24.5
2017-07-21T15:05:24.965Z,24.6
2017-07-21T15:06:33.254Z,24.6